sensor_id;sensor_type;location;lat;lon;timestamp;pressure;altitude;pressure_sealevel;temperature;humidity
11912;BME280;6016;41.928;25.556;2023-02-23T00:00:13;98966.44;;;11.09;60.36
11912;BME280;6016;41.928;25.556;2023-02-23T00:02:46;98977.09;;;10.79;60.45
11912;BME280;6016;41.928;25.556;2023-02-23T00:05:15;99009.59;;;10.70;61.20
11912;BME280;6016;41.928;25.556;2023-02-23T00:07:43;99019.78;;;10.35;62.74
11912;BME280;6016;41.928;25.556;2023-02-23T00:10:11;99009.78;;;10.49;61.95
11912;BME280;6016;41.928;25.556;2023-02-23T00:12:39;99011.75;;;10.37;63.25
11912;BME280;6016;41.928;25.556;2023-02-23T00:15:07;99010.34;;;10.23;63.65
11912;BME280;6016;41.928;25.556;2023-02-23T00:17:34;99016.59;;;10.32;63.34
11912;BME280;6016;41.928;25.556;2023-02-23T00:20:03;99018.81;;;10.36;63.14
11912;BME280;6016;41.928;25.556;2023-02-23T00:22:37;98962.22;;;10.11;63.24
11912;BME280;6016;41.928;25.556;2023-02-23T00:25:07;99013.81;;;10.43;63.93
11912;BME280;6016;41.928;25.556;2023-02-23T00:27:35;98983.84;;;10.34;63.36
11912;BME280;6016;41.928;25.556;2023-02-23T00:30:04;99018.41;;;10.41;62.80
11912;BME280;6016;41.928;25.556;2023-02-23T00:32:32;99043.78;;;10.22;61.37
11912;BME280;6016;41.928;25.556;2023-02-23T00:34:59;98982.31;;;10.32;61.17
11912;BME280;6016;41.928;25.556;2023-02-23T00:37:26;99017.97;;;10.55;61.09
11912;BME280;6016;41.928;25.556;2023-02-23T00:39:55;98963.16;;;10.30;60.95
11912;BME280;6016;41.928;25.556;2023-02-23T00:42:22;98796.63;;;9.19;61.91
11912;BME280;6016;41.928;25.556;2023-02-23T00:44:56;99021.88;;;10.41;61.43
11912;BME280;6016;41.928;25.556;2023-02-23T00:47:30;99015.47;;;10.34;61.32
11912;BME280;6016;41.928;25.556;2023-02-23T00:49:56;99015.88;;;10.39;61.94
11912;BME280;6016;41.928;25.556;2023-02-23T00:52:23;98959.16;;;10.16;60.56
11912;BME280;6016;41.928;25.556;2023-02-23T00:54:50;99004.38;;;10.60;60.36
11912;BME280;6016;41.928;25.556;2023-02-23T00:57:18;99004.09;;;10.53;60.01
11912;BME280;6016;41.928;25.556;2023-02-23T00:59:45;99007.16;;;10.49;60.06
11912;BME280;6016;41.928;25.556;2023-02-23T01:02:12;99002.19;;;10.46;60.53
11912;BME280;6016;41.928;25.556;2023-02-23T01:04:38;98977.59;;;10.35;59.69
11912;BME280;6016;41.928;25.556;2023-02-23T01:07:05;99036.88;;;10.41;61.85
11912;BME280;6016;41.928;25.556;2023-02-23T01:09:32;99003.56;;;10.50;60.88
11912;BME280;6016;41.928;25.556;2023-02-23T01:11:59;99006.44;;;10.57;59.80
11912;BME280;6016;41.928;25.556;2023-02-23T01:14:28;99001.19;;;10.57;59.22
11912;BME280;6016;41.928;25.556;2023-02-23T01:16:55;99002.72;;;10.49;59.66
11912;BME280;6016;41.928;25.556;2023-02-23T01:19:22;98757.84;;;9.01;59.47
11912;BME280;6016;41.928;25.556;2023-02-23T01:21:49;98967.59;;;10.29;59.97
11912;BME280;6016;41.928;25.556;2023-02-23T01:24:16;99012.41;;;10.59;59.66
11912;BME280;6016;41.928;25.556;2023-02-23T01:26:44;99000.78;;;10.51;60.31
11912;BME280;6016;41.928;25.556;2023-02-23T01:29:13;98997.59;;;10.48;59.97
11912;BME280;6016;41.928;25.556;2023-02-23T01:31:42;99015.06;;;10.49;59.36
11912;BME280;6016;41.928;25.556;2023-02-23T01:34:11;98984.56;;;10.26;60.10
11912;BME280;6016;41.928;25.556;2023-02-23T01:36:41;99012.16;;;10.42;60.70
11912;BME280;6016;41.928;25.556;2023-02-23T01:39:10;98859.38;;;9.34;59.91
11912;BME280;6016;41.928;25.556;2023-02-23T01:41:38;98989.25;;;10.33;60.98
11912;BME280;6016;41.928;25.556;2023-02-23T01:44:57;98903.72;;;9.78;60.61
11912;BME280;6016;41.928;25.556;2023-02-23T01:46:56;99015.03;;;10.59;59.96
11912;BME280;6016;41.928;25.556;2023-02-23T01:49:27;99002.31;;;10.44;60.87
11912;BME280;6016;41.928;25.556;2023-02-23T01:51:58;99014.78;;;10.62;61.15
11912;BME280;6016;41.928;25.556;2023-02-23T01:54:27;98955.81;;;10.23;60.63
11912;BME280;6016;41.928;25.556;2023-02-23T01:56:57;99021.84;;;10.61;60.86
11912;BME280;6016;41.928;25.556;2023-02-23T01:59:29;99019.91;;;10.63;60.59
11912;BME280;6016;41.928;25.556;2023-02-23T02:02:01;99023.38;;;10.54;60.71
11912;BME280;6016;41.928;25.556;2023-02-23T02:04:29;98980.66;;;10.21;60.52
11912;BME280;6016;41.928;25.556;2023-02-23T02:07:03;99023.38;;;10.54;60.64
11912;BME280;6016;41.928;25.556;2023-02-23T02:09:32;99028.53;;;10.46;61.16
11912;BME280;6016;41.928;25.556;2023-02-23T02:12:02;99035.78;;;10.44;59.88
11912;BME280;6016;41.928;25.556;2023-02-23T02:14:33;99038.53;;;10.42;59.93
11912;BME280;6016;41.928;25.556;2023-02-23T02:17:20;99041.84;;;10.44;60.51
11912;BME280;6016;41.928;25.556;2023-02-23T02:20:18;99032.28;;;10.33;59.76
11912;BME280;6016;41.928;25.556;2023-02-23T02:26:16;99039.34;;;10.23;60.78
11912;BME280;6016;41.928;25.556;2023-02-23T02:29:18;99036.31;;;10.18;61.27
11912;BME280;6016;41.928;25.556;2023-02-23T02:35:25;99002.28;;;9.85;62.96
11912;BME280;6016;41.928;25.556;2023-02-23T02:38:15;99007.97;;;9.70;62.76
11912;BME280;6016;41.928;25.556;2023-02-23T02:40:46;99044.44;;;9.75;62.76
11912;BME280;6016;41.928;25.556;2023-02-23T02:43:23;98972.13;;;9.28;62.02
11912;BME280;6016;41.928;25.556;2023-02-23T02:45:55;99011.56;;;9.60;62.21
11912;BME280;6016;41.928;25.556;2023-02-23T02:48:35;98938.34;;;9.24;61.33
11912;BME280;6016;41.928;25.556;2023-02-23T02:51:12;99016.53;;;9.63;61.38
11912;BME280;6016;41.928;25.556;2023-02-23T02:53:49;98975.50;;;9.40;61.74
11912;BME280;6016;41.928;25.556;2023-02-23T02:56:19;98972.19;;;9.48;62.89
11912;BME280;6016;41.928;25.556;2023-02-23T02:58:47;99056.28;;;10.01;62.17
11912;BME280;6016;41.928;25.556;2023-02-23T03:01:17;99050.16;;;9.90;63.21
11912;BME280;6016;41.928;25.556;2023-02-23T03:04:17;99011.84;;;9.76;62.19
11912;BME280;6016;41.928;25.556;2023-02-23T03:07:07;99052.38;;;10.14;62.62
11912;BME280;6016;41.928;25.556;2023-02-23T03:10:02;99052.66;;;10.21;60.91
11912;BME280;6016;41.928;25.556;2023-02-23T03:12:59;99055.03;;;10.24;61.31
11912;BME280;6016;41.928;25.556;2023-02-23T03:15:54;99058.09;;;10.20;61.14
11912;BME280;6016;41.928;25.556;2023-02-23T03:18:53;99058.75;;;9.82;62.53
11912;BME280;6016;41.928;25.556;2023-02-23T03:21:45;99063.59;;;9.87;62.35
11912;BME280;6016;41.928;25.556;2023-02-23T03:24:36;99058.63;;;9.94;62.38
11912;BME280;6016;41.928;25.556;2023-02-23T03:27:26;99033.59;;;9.68;62.39
11912;BME280;6016;41.928;25.556;2023-02-23T03:30:17;99069.97;;;9.84;62.69
11912;BME280;6016;41.928;25.556;2023-02-23T03:33:07;99051.75;;;9.71;62.64
11912;BME280;6016;41.928;25.556;2023-02-23T03:35:57;99033.41;;;9.50;63.46
11912;BME280;6016;41.928;25.556;2023-02-23T03:38:48;99064.88;;;9.42;63.92
11912;BME280;6016;41.928;25.556;2023-02-23T03:41:36;99069.59;;;9.48;63.86
11912;BME280;6016;41.928;25.556;2023-02-23T03:44:27;99042.47;;;9.26;64.37
11912;BME280;6016;41.928;25.556;2023-02-23T03:47:14;98905.25;;;8.49;63.79
11912;BME280;6016;41.928;25.556;2023-02-23T03:50:01;99068.41;;;9.62;63.84
11912;BME280;6016;41.928;25.556;2023-02-23T03:52:49;99062.25;;;9.52;63.62
11912;BME280;6016;41.928;25.556;2023-02-23T03:55:38;99051.84;;;9.50;63.73
11912;BME280;6016;41.928;25.556;2023-02-23T03:58:41;99074.09;;;9.67;63.14
11912;BME280;6016;41.928;25.556;2023-02-23T04:01:30;99075.47;;;9.71;62.59
11912;BME280;6016;41.928;25.556;2023-02-23T04:04:16;99059.34;;;9.45;63.02
11912;BME280;6016;41.928;25.556;2023-02-23T04:07:02;98977.00;;;8.92;63.09
11912;BME280;6016;41.928;25.556;2023-02-23T04:09:47;99087.13;;;9.69;62.11
11912;BME280;6016;41.928;25.556;2023-02-23T04:12:33;99084.34;;;9.70;62.45
11912;BME280;6016;41.928;25.556;2023-02-23T04:15:23;99080.06;;;9.79;62.29
11912;BME280;6016;41.928;25.556;2023-02-23T04:17:53;99073.84;;;9.80;62.08
11912;BME280;6016;41.928;25.556;2023-02-23T04:20:21;99082.69;;;9.79;61.95
11912;BME280;6016;41.928;25.556;2023-02-23T04:22:47;99074.38;;;9.84;61.44
11912;BME280;6016;41.928;25.556;2023-02-23T04:25:15;99080.34;;;9.76;61.46
11912;BME280;6016;41.928;25.556;2023-02-23T04:27:43;99078.81;;;9.74;62.09
11912;BME280;6016;41.928;25.556;2023-02-23T04:30:11;99076.59;;;9.69;61.55
11912;BME280;6016;41.928;25.556;2023-02-23T04:32:38;99036.72;;;9.42;64.89
11912;BME280;6016;41.928;25.556;2023-02-23T04:35:07;99066.38;;;9.45;64.29
11912;BME280;6016;41.928;25.556;2023-02-23T04:37:33;99035.94;;;9.21;63.44
11912;BME280;6016;41.928;25.556;2023-02-23T04:40:00;99019.63;;;9.17;62.21
11912;BME280;6016;41.928;25.556;2023-02-23T04:42:27;99078.22;;;9.60;61.84
11912;BME280;6016;41.928;25.556;2023-02-23T04:44:54;99090.81;;;9.56;61.82
11912;BME280;6016;41.928;25.556;2023-02-23T04:47:21;99085.56;;;9.56;62.40
11912;BME280;6016;41.928;25.556;2023-02-23T04:49:49;99088.59;;;9.52;62.63
11912;BME280;6016;41.928;25.556;2023-02-23T04:52:17;99086.34;;;9.47;62.77
11912;BME280;6016;41.928;25.556;2023-02-23T04:54:44;99088.31;;;9.55;64.30
11912;BME280;6016;41.928;25.556;2023-02-23T04:57:11;99082.94;;;9.56;63.11
11912;BME280;6016;41.928;25.556;2023-02-23T04:59:37;99036.81;;;9.31;63.23
11912;BME280;6016;41.928;25.556;2023-02-23T05:02:04;99052.69;;;9.51;62.03
11912;BME280;6016;41.928;25.556;2023-02-23T05:04:32;99030.19;;;9.37;62.05
11912;BME280;6016;41.928;25.556;2023-02-23T05:07:00;99070.47;;;9.59;62.06
11912;BME280;6016;41.928;25.556;2023-02-23T05:09:29;99095.72;;;9.71;62.25
11912;BME280;6016;41.928;25.556;2023-02-23T05:11:56;99096.53;;;9.71;63.62
11912;BME280;6016;41.928;25.556;2023-02-23T05:14:23;98745.63;;;7.58;63.04
11912;BME280;6016;41.928;25.556;2023-02-23T05:16:50;99096.00;;;9.68;63.21
11912;BME280;6016;41.928;25.556;2023-02-23T05:19:17;99058.47;;;9.45;62.70
11912;BME280;6016;41.928;25.556;2023-02-23T05:21:43;99062.53;;;9.49;62.77
11912;BME280;6016;41.928;25.556;2023-02-23T05:24:10;99103.16;;;9.66;63.17
11912;BME280;6016;41.928;25.556;2023-02-23T05:26:39;99099.25;;;9.50;62.97
11912;BME280;6016;41.928;25.556;2023-02-23T05:29:05;99115.25;;;9.68;62.95
11912;BME280;6016;41.928;25.556;2023-02-23T05:31:32;99063.91;;;9.12;64.69
11912;BME280;6016;41.928;25.556;2023-02-23T05:33:59;99054.31;;;9.01;64.41
11912;BME280;6016;41.928;25.556;2023-02-23T05:36:26;99132.66;;;9.50;64.40
11912;BME280;6016;41.928;25.556;2023-02-23T05:38:53;99140.59;;;9.60;64.29
11912;BME280;6016;41.928;25.556;2023-02-23T05:41:21;99141.81;;;9.55;64.69
11912;BME280;6016;41.928;25.556;2023-02-23T05:43:50;99147.09;;;9.55;65.78
11912;BME280;6016;41.928;25.556;2023-02-23T05:46:20;99144.84;;;9.51;67.19
11912;BME280;6016;41.928;25.556;2023-02-23T05:48:48;99149.41;;;9.49;66.80
11912;BME280;6016;41.928;25.556;2023-02-23T05:51:16;98769.13;;;6.84;67.78
11912;BME280;6016;41.928;25.556;2023-02-23T05:53:43;99112.75;;;8.83;68.70
11912;BME280;6016;41.928;25.556;2023-02-23T05:56:12;99125.13;;;8.93;68.86
11912;BME280;6016;41.928;25.556;2023-02-23T05:58:42;99114.81;;;8.80;70.12
11912;BME280;6016;41.928;25.556;2023-02-23T06:01:11;99172.44;;;9.04;70.34
11912;BME280;6016;41.928;25.556;2023-02-23T06:03:38;99172.75;;;9.11;71.32
11912;BME280;6016;41.928;25.556;2023-02-23T06:06:05;99150.34;;;8.74;71.29
11912;BME280;6016;41.928;25.556;2023-02-23T06:08:32;99184.63;;;9.05;71.17
11912;BME280;6016;41.928;25.556;2023-02-23T06:10:58;99179.78;;;8.89;71.23
11912;BME280;6016;41.928;25.556;2023-02-23T06:13:25;99136.97;;;8.66;71.08
11912;BME280;6016;41.928;25.556;2023-02-23T06:15:53;99082.53;;;8.24;71.34
11912;BME280;6016;41.928;25.556;2023-02-23T06:18:21;99181.53;;;8.79;72.23
11912;BME280;6016;41.928;25.556;2023-02-23T06:20:48;99201.41;;;8.93;71.54
11912;BME280;6016;41.928;25.556;2023-02-23T06:23:15;99199.75;;;8.92;71.45
11912;BME280;6016;41.928;25.556;2023-02-23T06:25:42;99204.41;;;8.88;70.84
11912;BME280;6016;41.928;25.556;2023-02-23T06:28:09;99168.69;;;8.53;71.69
11912;BME280;6016;41.928;25.556;2023-02-23T06:30:37;99194.91;;;8.76;72.17
11912;BME280;6016;41.928;25.556;2023-02-23T06:33:04;99195.38;;;8.81;71.43
11912;BME280;6016;41.928;25.556;2023-02-23T06:35:33;99181.72;;;8.87;71.29
11912;BME280;6016;41.928;25.556;2023-02-23T06:38:00;99155.16;;;8.90;70.41
11912;BME280;6016;41.928;25.556;2023-02-23T06:40:28;99204.56;;;9.50;69.98
11912;BME280;6016;41.928;25.556;2023-02-23T06:42:55;99183.56;;;9.39;68.60
11912;BME280;6016;41.928;25.556;2023-02-23T06:45:22;99210.38;;;9.75;68.18
11912;BME280;6016;41.928;25.556;2023-02-23T06:47:51;99109.53;;;9.22;67.53
11912;BME280;6016;41.928;25.556;2023-02-23T06:50:18;99203.34;;;9.85;67.51
11912;BME280;6016;41.928;25.556;2023-02-23T06:52:47;99175.38;;;9.94;66.84
11912;BME280;6016;41.928;25.556;2023-02-23T06:55:14;99211.97;;;11.57;62.02
11912;BME280;6016;41.928;25.556;2023-02-23T06:57:41;99202.28;;;12.95;57.67
11912;BME280;6016;41.928;25.556;2023-02-23T07:00:11;99206.03;;;13.74;55.11
11912;BME280;6016;41.928;25.556;2023-02-23T07:02:39;99206.13;;;13.99;53.85
11912;BME280;6016;41.928;25.556;2023-02-23T07:05:07;99159.50;;;13.79;53.76
11912;BME280;6016;41.928;25.556;2023-02-23T07:07:34;99170.50;;;15.27;50.68
11912;BME280;6016;41.928;25.556;2023-02-23T07:10:02;99213.59;;;15.96;48.51
11912;BME280;6016;41.928;25.556;2023-02-23T07:12:29;99221.97;;;15.68;48.76
11912;BME280;6016;41.928;25.556;2023-02-23T07:14:56;99204.94;;;15.77;48.75
11912;BME280;6016;41.928;25.556;2023-02-23T07:17:23;99221.31;;;16.77;46.48
11912;BME280;6016;41.928;25.556;2023-02-23T07:19:50;99212.06;;;16.88;45.42
11912;BME280;6016;41.928;25.556;2023-02-23T07:22:17;99044.75;;;16.83;44.86
11912;BME280;6016;41.928;25.556;2023-02-23T07:24:43;99211.47;;;18.81;42.12
11912;BME280;6016;41.928;25.556;2023-02-23T07:27:12;99218.13;;;18.49;42.63
11912;BME280;6016;41.928;25.556;2023-02-23T07:29:38;99216.69;;;16.71;44.96
11912;BME280;6016;41.928;25.556;2023-02-23T07:32:05;99225.69;;;15.98;46.32
11912;BME280;6016;41.928;25.556;2023-02-23T07:34:32;99226.47;;;15.09;49.15
11912;BME280;6016;41.928;25.556;2023-02-23T07:36:59;99224.28;;;14.71;52.17
11912;BME280;6016;41.928;25.556;2023-02-23T07:39:26;99207.75;;;14.34;51.17
11912;BME280;6016;41.928;25.556;2023-02-23T07:41:53;99224.34;;;15.04;50.79
11912;BME280;6016;41.928;25.556;2023-02-23T07:44:21;99232.28;;;15.46;49.67
11912;BME280;6016;41.928;25.556;2023-02-23T07:46:48;99234.06;;;15.79;47.98
11912;BME280;6016;41.928;25.556;2023-02-23T07:49:17;99203.91;;;17.13;46.49
11912;BME280;6016;41.928;25.556;2023-02-23T07:51:44;99227.38;;;17.71;43.67
11912;BME280;6016;41.928;25.556;2023-02-23T07:54:10;99231.59;;;17.65;43.68
11912;BME280;6016;41.928;25.556;2023-02-23T07:56:38;99194.34;;;17.57;44.02
11912;BME280;6016;41.928;25.556;2023-02-23T07:59:05;99218.88;;;17.52;45.54
11912;BME280;6016;41.928;25.556;2023-02-23T08:01:33;99221.06;;;17.34;44.63
11912;BME280;6016;41.928;25.556;2023-02-23T08:04:00;99144.00;;;16.39;45.06
11912;BME280;6016;41.928;25.556;2023-02-23T08:06:27;99240.50;;;16.41;47.34
11912;BME280;6016;41.928;25.556;2023-02-23T08:08:53;99197.19;;;15.67;48.73
11912;BME280;6016;41.928;25.556;2023-02-23T08:11:22;99251.41;;;15.41;50.41
11912;BME280;6016;41.928;25.556;2023-02-23T08:13:49;99227.06;;;14.70;52.12
11912;BME280;6016;41.928;25.556;2023-02-23T08:16:16;99245.69;;;14.27;54.84
11912;BME280;6016;41.928;25.556;2023-02-23T08:18:45;99240.88;;;13.87;54.31
11912;BME280;6016;41.928;25.556;2023-02-23T08:21:11;99259.47;;;13.43;56.13
11912;BME280;6016;41.928;25.556;2023-02-23T08:23:38;99145.22;;;12.20;59.42
11912;BME280;6016;41.928;25.556;2023-02-23T08:26:05;99269.56;;;12.38;61.22
11912;BME280;6016;41.928;25.556;2023-02-23T08:28:32;99261.72;;;12.47;61.06
11912;BME280;6016;41.928;25.556;2023-02-23T08:30:58;99223.47;;;12.13;60.69
11912;BME280;6016;41.928;25.556;2023-02-23T08:33:25;99199.88;;;11.92;62.24
11912;BME280;6016;41.928;25.556;2023-02-23T08:35:54;99244.66;;;12.03;61.38
11912;BME280;6016;41.928;25.556;2023-02-23T08:38:23;99103.69;;;11.09;62.51
11912;BME280;6016;41.928;25.556;2023-02-23T08:40:50;99271.09;;;11.93;62.81
11912;BME280;6016;41.928;25.556;2023-02-23T08:43:17;99269.88;;;11.88;64.10
11912;BME280;6016;41.928;25.556;2023-02-23T08:45:44;99273.06;;;11.91;63.39
11912;BME280;6016;41.928;25.556;2023-02-23T08:48:11;99248.22;;;11.74;62.90
11912;BME280;6016;41.928;25.556;2023-02-23T08:50:38;99273.25;;;11.80;63.58
11912;BME280;6016;41.928;25.556;2023-02-23T08:53:06;99275.28;;;11.86;63.82
11912;BME280;6016;41.928;25.556;2023-02-23T08:55:33;99251.31;;;11.60;63.72
11912;BME280;6016;41.928;25.556;2023-02-23T08:58:01;99248.38;;;11.63;64.81
11912;BME280;6016;41.928;25.556;2023-02-23T09:00:28;99187.19;;;10.90;64.83
11912;BME280;6016;41.928;25.556;2023-02-23T09:02:55;99270.53;;;11.52;66.55
11912;BME280;6016;41.928;25.556;2023-02-23T09:05:22;99208.31;;;10.80;66.49
11912;BME280;6016;41.928;25.556;2023-02-23T09:07:49;99202.03;;;11.11;66.72
11912;BME280;6016;41.928;25.556;2023-02-23T09:10:19;99176.78;;;10.89;66.02
11912;BME280;6016;41.928;25.556;2023-02-23T09:12:49;99334.34;;;11.47;66.08
11912;BME280;6016;41.928;25.556;2023-02-23T09:15:16;99183.44;;;11.13;65.50
11912;BME280;6016;41.928;25.556;2023-02-23T09:17:43;99248.25;;;11.64;66.06
11912;BME280;6016;41.928;25.556;2023-02-23T09:20:13;99255.16;;;11.75;65.59
11912;BME280;6016;41.928;25.556;2023-02-23T09:22:40;99272.63;;;11.96;65.63
11912;BME280;6016;41.928;25.556;2023-02-23T09:25:13;99273.47;;;11.96;65.27
11912;BME280;6016;41.928;25.556;2023-02-23T09:27:44;99280.56;;;11.96;65.07
11912;BME280;6016;41.928;25.556;2023-02-23T09:30:11;99262.91;;;11.87;65.11
11912;BME280;6016;41.928;25.556;2023-02-23T09:32:43;99278.91;;;11.95;65.42
11912;BME280;6016;41.928;25.556;2023-02-23T09:35:09;99267.06;;;11.99;65.02
11912;BME280;6016;41.928;25.556;2023-02-23T09:37:36;99276.13;;;11.87;65.49
11912;BME280;6016;41.928;25.556;2023-02-23T09:40:04;99244.19;;;11.70;66.00
11912;BME280;6016;41.928;25.556;2023-02-23T09:42:35;99280.47;;;11.78;66.84
11912;BME280;6016;41.928;25.556;2023-02-23T09:45:19;99245.34;;;11.58;64.88
11912;BME280;6016;41.928;25.556;2023-02-23T09:48:09;99249.22;;;11.63;65.94
11912;BME280;6016;41.928;25.556;2023-02-23T09:50:38;99254.47;;;11.73;65.50
11912;BME280;6016;41.928;25.556;2023-02-23T09:53:31;99192.69;;;11.36;65.46
11912;BME280;6016;41.928;25.556;2023-02-23T09:55:59;99253.28;;;11.58;67.04
11912;BME280;6016;41.928;25.556;2023-02-23T09:58:31;99280.31;;;11.89;67.13
11912;BME280;6016;41.928;25.556;2023-02-23T10:01:16;99290.69;;;12.01;66.36
11912;BME280;6016;41.928;25.556;2023-02-23T10:03:50;99276.34;;;12.13;66.13
11912;BME280;6016;41.928;25.556;2023-02-23T10:06:20;99281.56;;;12.33;65.79
11912;BME280;6016;41.928;25.556;2023-02-23T10:08:55;99274.25;;;12.45;65.40
11912;BME280;6016;41.928;25.556;2023-02-23T10:11:28;99269.38;;;12.50;64.64
11912;BME280;6016;41.928;25.556;2023-02-23T10:14:11;99256.63;;;12.35;65.73
11912;BME280;6016;41.928;25.556;2023-02-23T10:16:54;99227.16;;;12.48;65.99
11912;BME280;6016;41.928;25.556;2023-02-23T10:19:30;99268.56;;;12.86;64.50
11912;BME280;6016;41.928;25.556;2023-02-23T10:22:02;99260.47;;;12.69;65.63
11912;BME280;6016;41.928;25.556;2023-02-23T10:24:35;99255.50;;;12.66;66.07
11912;BME280;6016;41.928;25.556;2023-02-23T10:27:07;99243.69;;;12.78;65.17
11912;BME280;6016;41.928;25.556;2023-02-23T10:29:40;99260.19;;;12.90;65.84
11912;BME280;6016;41.928;25.556;2023-02-23T10:32:17;99203.91;;;12.52;65.52
11912;BME280;6016;41.928;25.556;2023-02-23T10:34:46;99249.13;;;12.95;66.19
11912;BME280;6016;41.928;25.556;2023-02-23T10:37:16;99209.19;;;12.52;66.18
11912;BME280;6016;41.928;25.556;2023-02-23T10:39:43;99246.63;;;12.75;67.32
11912;BME280;6016;41.928;25.556;2023-02-23T10:42:14;99116.34;;;12.09;66.30
11912;BME280;6016;41.928;25.556;2023-02-23T10:44:43;99249.22;;;13.03;66.13
11912;BME280;6016;41.928;25.556;2023-02-23T10:47:15;99227.41;;;13.09;65.82
11912;BME280;6016;41.928;25.556;2023-02-23T10:49:46;99229.06;;;13.29;64.68
11912;BME280;6016;41.928;25.556;2023-02-23T10:52:15;99167.34;;;13.10;64.35
11912;BME280;6016;41.928;25.556;2023-02-23T10:54:45;99245.56;;;13.67;64.68
11912;BME280;6016;41.928;25.556;2023-02-23T10:57:19;99243.50;;;13.79;63.96
11912;BME280;6016;41.928;25.556;2023-02-23T11:00:23;99235.09;;;13.92;63.67
11912;BME280;6016;41.928;25.556;2023-02-23T11:02:59;99234.78;;;13.95;63.94
11912;BME280;6016;41.928;25.556;2023-02-23T11:05:36;99248.53;;;13.90;63.67
11912;BME280;6016;41.928;25.556;2023-02-23T11:08:17;99193.50;;;13.58;63.74
11912;BME280;6016;41.928;25.556;2023-02-23T11:11:01;99219.47;;;13.81;64.17
11912;BME280;6016;41.928;25.556;2023-02-23T11:13:33;99209.50;;;13.74;64.40
11912;BME280;6016;41.928;25.556;2023-02-23T11:16:01;99220.84;;;13.93;64.13
11912;BME280;6016;41.928;25.556;2023-02-23T11:18:31;99169.34;;;13.61;63.69
11912;BME280;6016;41.928;25.556;2023-02-23T11:20:58;99226.56;;;14.06;64.28
11912;BME280;6016;41.928;25.556;2023-02-23T11:23:27;99217.47;;;14.09;64.40
11912;BME280;6016;41.928;25.556;2023-02-23T11:25:57;99147.25;;;13.26;65.09
11912;BME280;6016;41.928;25.556;2023-02-23T11:28:28;99137.75;;;13.15;64.94
11912;BME280;6016;41.928;25.556;2023-02-23T11:30:59;99221.59;;;13.77;65.46
11912;BME280;6016;41.928;25.556;2023-02-23T11:33:31;99126.38;;;13.22;65.10
11912;BME280;6016;41.928;25.556;2023-02-23T11:36:14;99205.78;;;13.93;64.96
11912;BME280;6016;41.928;25.556;2023-02-23T11:38:43;99162.19;;;13.53;64.88
11912;BME280;6016;41.928;25.556;2023-02-23T11:41:18;99144.69;;;13.69;64.82
11912;BME280;6016;41.928;25.556;2023-02-23T11:43:47;99158.38;;;13.90;64.32
11912;BME280;6016;41.928;25.556;2023-02-23T11:46:14;99176.28;;;13.97;64.63
11912;BME280;6016;41.928;25.556;2023-02-23T11:48:48;99214.09;;;13.99;65.11
11912;BME280;6016;41.928;25.556;2023-02-23T11:51:23;99212.94;;;14.01;65.29
11912;BME280;6016;41.928;25.556;2023-02-23T11:53:51;99203.06;;;14.12;65.20
11912;BME280;6016;41.928;25.556;2023-02-23T11:56:20;99158.63;;;13.71;64.58
11912;BME280;6016;41.928;25.556;2023-02-23T11:58:49;99165.16;;;13.85;64.97
11912;BME280;6016;41.928;25.556;2023-02-23T12:01:21;99153.84;;;13.74;64.73
11912;BME280;6016;41.928;25.556;2023-02-23T12:03:52;99212.50;;;14.14;64.58
11912;BME280;6016;41.928;25.556;2023-02-23T12:06:28;98475.25;;;9.32;64.99
11912;BME280;6016;41.928;25.556;2023-02-23T12:08:59;99196.09;;;13.76;65.29
11912;BME280;6016;41.928;25.556;2023-02-23T12:11:32;99171.09;;;13.52;65.88
11912;BME280;6016;41.928;25.556;2023-02-23T12:14:06;99204.13;;;13.92;65.71
11912;BME280;6016;41.928;25.556;2023-02-23T12:16:39;99211.56;;;13.89;66.32
11912;BME280;6016;41.928;25.556;2023-02-23T12:19:21;99095.94;;;13.27;65.63
11912;BME280;6016;41.928;25.556;2023-02-23T12:21:55;99206.78;;;13.92;65.74
11912;BME280;6016;41.928;25.556;2023-02-23T12:24:37;99084.06;;;13.04;66.12
11912;BME280;6016;41.928;25.556;2023-02-23T12:27:12;98989.66;;;12.60;66.50
11912;BME280;6016;41.928;25.556;2023-02-23T12:29:47;99220.72;;;14.03;65.71
11912;BME280;6016;41.928;25.556;2023-02-23T12:32:22;99225.50;;;13.91;66.18
11912;BME280;6016;41.928;25.556;2023-02-23T12:34:55;99228.06;;;13.74;66.20
11912;BME280;6016;41.928;25.556;2023-02-23T12:37:33;99225.94;;;13.78;66.66
11912;BME280;6016;41.928;25.556;2023-02-23T12:40:13;99222.03;;;13.90;66.47
11912;BME280;6016;41.928;25.556;2023-02-23T12:42:45;99173.00;;;13.68;66.40
11912;BME280;6016;41.928;25.556;2023-02-23T12:45:20;99222.03;;;13.99;66.58
11912;BME280;6016;41.928;25.556;2023-02-23T12:47:54;99174.22;;;13.74;65.99
11912;BME280;6016;41.928;25.556;2023-02-23T12:50:27;99183.19;;;13.46;66.93
11912;BME280;6016;41.928;25.556;2023-02-23T12:52:57;99199.31;;;13.61;67.35
11912;BME280;6016;41.928;25.556;2023-02-23T12:55:34;99223.69;;;13.91;66.82
11912;BME280;6016;41.928;25.556;2023-02-23T12:58:10;98961.97;;;12.28;66.63
11912;BME280;6016;41.928;25.556;2023-02-23T13:00:45;99235.75;;;13.86;67.12
11912;BME280;6016;41.928;25.556;2023-02-23T13:03:34;99102.63;;;13.13;67.04
11912;BME280;6016;41.928;25.556;2023-02-23T13:06:10;98843.31;;;11.62;66.21
11912;BME280;6016;41.928;25.556;2023-02-23T13:08:54;99231.19;;;14.04;66.66
11912;BME280;6016;41.928;25.556;2023-02-23T13:11:34;99184.28;;;13.70;66.77
11912;BME280;6016;41.928;25.556;2023-02-23T13:14:09;99225.03;;;13.96;66.72
11912;BME280;6016;41.928;25.556;2023-02-23T13:16:41;99167.19;;;13.64;66.55
11912;BME280;6016;41.928;25.556;2023-02-23T13:19:15;99201.28;;;13.86;67.13
11912;BME280;6016;41.928;25.556;2023-02-23T13:21:51;99211.97;;;14.02;67.07
11912;BME280;6016;41.928;25.556;2023-02-23T13:24:23;99212.50;;;14.14;67.10
11912;BME280;6016;41.928;25.556;2023-02-23T13:26:57;99192.22;;;13.97;67.11
11912;BME280;6016;41.928;25.556;2023-02-23T13:29:32;99148.63;;;13.56;67.33
11912;BME280;6016;41.928;25.556;2023-02-23T13:32:01;99204.16;;;14.01;67.75
11912;BME280;6016;41.928;25.556;2023-02-23T13:34:32;99092.16;;;13.29;67.28